Time;durP1;ratioP1;P1;durP2;ratioP2;P2;SDS_P1;SDS_P2;PMS_P1;PMS_P2;Temp;Humidity;BMP_temperature;BMP_pressure;BME280_temperature;BME280_humidity;BME280_pressure;Samples;Min_cycle;Max_cycle;Signal;HPM_P1;HPM_P2
2023/03/05 09:02:14;;;;;;;9.10;1.50;;;;;;;;;;107617;1263;549940;-79
2023/03/05 09:05:06;;;;;;;7.70;1.60;;;;;;;;;;103929;1305;545088;-83
2023/03/05 09:07:39;;;;;;;10.70;2.00;;;;;;;;;;106150;1288;23012;-78
2023/03/05 09:10:17;;;;;;;8.00;1.70;;;;;;;;;;106456;1283;22522;-81
2023/03/05 09:13:12;;;;;;;9.70;2.40;;;;;;;;;;106248;1288;25380;-82
2023/03/05 09:15:52;;;;;;;10.00;2.50;;;;;;;;;;106174;1272;22537;-84
2023/03/05 09:18:35;;;;;;;12.20;3.00;;;;;;;;;;104404;1286;2602105;-82
2023/03/05 09:21:07;;;;;;;11.60;3.30;;;;;;;;;;106424;1287;24190;-84
2023/03/05 09:23:47;;;;;;;15.50;4.30;;;;;;;;;;106513;1287;22646;-84
2023/03/05 09:27:01;;;;;;;15.10;3.00;;;;;;;;;;107118;1266;22536;-83
2023/03/05 09:29:43;;;;;;;10.30;2.50;;;;;;;;;;107288;1274;25384;-78
2023/03/05 09:32:13;;;;;;;9.40;2.40;;;;;;;;;;107324;1275;22519;-79
2023/03/05 09:34:48;;;;;;;9.50;2.50;;;;;;;;;;107279;1260;22566;-81
2023/03/05 09:37:19;;;;;;;11.70;3.10;;;;;;;;;;107296;1262;24200;-83
2023/03/05 09:40:00;;;;;;;9.90;2.30;;;;;;;;;;107253;1275;25319;-81
2023/03/05 09:42:58;;;;;;;11.00;2.90;;;;;;;;;;107120;1275;22520;-80
2023/03/05 09:45:54;;;;;;;8.10;2.10;;;;;;;;;;107080;1257;22532;-78
2023/03/05 09:48:42;;;;;;;8.30;2.20;;;;;;;;;;107123;1275;24339;-81
2023/03/05 09:51:50;;;;;;;;;;;;;;;;;;;;;
2023/03/05 09:54:31;;;;;;;12.60;3.90;;;;;;;;;;107411;1276;22531;-80
2023/03/05 09:57:14;;;;;;;8.00;2.40;;;;;;;;;;107236;1256;24338;-75
2023/03/05 09:59:56;;;;;;;7.70;2.20;;;;;;;;;;107025;1275;24415;-75
2023/03/05 10:02:26;;;;;;;7.80;2.20;;;;;;;;;;107027;1276;24240;-75
2023/03/05 10:05:14;;;;;;;9.10;2.50;;;;;;;;;;107130;1269;22577;-74
2023/03/05 10:07:43;;;;;;;7.40;2.40;;;;;;;;;;106418;1264;22538;-74
2023/03/05 10:10:38;;;;;;;7.30;2.00;;;;;;;;;;106461;1279;22764;-74
2023/03/05 10:13:10;;;;;;;7.40;1.80;;;;;;;;;;106267;1275;25436;-75
2023/03/05 10:15:50;;;;;;;8.00;2.00;;;;;;;;;;106542;1276;22531;-75
2023/03/05 10:19:16;;;;;;;8.70;2.20;;;;;;;;;;106339;1265;25276;-78
2023/03/05 10:22:13;;;;;;;14.50;3.70;;;;;;;;;;106227;1276;22669;-77
2023/03/05 10:25:12;;;;;;;7.60;2.50;;;;;;;;;;106349;1282;22528;-76
2023/03/05 10:27:44;;;;;;;10.10;2.70;;;;;;;;;;106677;1266;26935;-77
2023/03/05 10:30:17;;;;;;;8.10;2.70;;;;;;;;;;106458;1277;24297;-73
2023/03/05 10:33:25;;;;;;;8.70;2.40;;;;;;;;;;106508;1280;24240;-74
2023/03/05 10:40:31;;;;;;;10.00;2.40;;;;;;;;;;106172;1278;22538;-73
2023/03/05 10:43:12;;;;;;;10.90;2.30;;;;;;;;;;106038;1279;22540;-74
2023/03/05 10:46:09;;;;;;;9.60;2.20;;;;;;;;;;106377;1279;22582;-72
2023/03/05 10:49:02;;;;;;;6.50;2.10;;;;;;;;;;106435;1271;25513;-74
2023/03/05 10:51:43;;;;;;;8.00;2.30;;;;;;;;;;106389;1275;25403;-73
2023/03/05 10:54:30;;;;;;;6.60;2.40;;;;;;;;;;106419;1281;24201;-75
2023/03/05 10:57:33;;;;;;;7.50;1.80;;;;;;;;;;106340;1282;22527;-76
2023/03/05 11:00:05;;;;;;;17.20;5.90;;;;;;;;;;106388;1273;22525;-72
2023/03/05 11:02:33;;;;;;;25.50;7.80;;;;;;;;;;106432;1282;24186;-72
2023/03/05 11:05:00;;;;;;;13.40;4.40;;;;;;;;;;106492;1282;22702;-76
2023/03/05 11:07:34;;;;;;;10.30;4.80;;;;;;;;;;106393;1281;24204;-77
2023/03/05 11:10:10;;;;;;;9.30;5.40;;;;;;;;;;106359;1277;22791;-73
2023/03/05 11:12:46;;;;;;;9.00;3.50;;;;;;;;;;106634;1277;22537;-76
2023/03/05 11:15:35;;;;;;;9.00;2.80;;;;;;;;;;106723;1257;25322;-73
2023/03/05 11:18:30;;;;;;;8.60;2.70;;;;;;;;;;106650;1277;22530;-74
2023/03/05 11:21:09;;;;;;;5.40;2.30;;;;;;;;;;110508;1257;22127;-71
2023/03/05 11:23:58;;;;;;;9.00;2.70;;;;;;;;;;110354;1276;22140;-72
2023/03/05 11:26:23;;;;;;;6.60;1.90;;;;;;;;;;110370;1269;24554;-73
2023/03/05 11:29:09;;;;;;;10.70;3.30;;;;;;;;;;110442;1270;22281;-75
2023/03/05 11:31:37;;;;;;;8.60;3.30;;;;;;;;;;110278;1276;22949;-73
2023/03/05 11:34:19;;;;;;;7.50;2.20;;;;;;;;;;110377;1276;22998;-75
2023/03/05 11:37:20;;;;;;;;;;;;;;;;;;;;;
2023/03/05 11:39:47;;;;;;;7.00;2.30;;;;;;;;;;110488;1254;22302;-73
2023/03/05 11:42:22;;;;;;;5.60;2.20;;;;;;;;;;110472;1275;22124;-74
2023/03/05 11:44:51;;;;;;;7.10;2.10;;;;;;;;;;110408;1275;22081;-73
2023/03/05 11:47:28;;;;;;;8.30;2.70;;;;;;;;;;110536;1276;22149;-73
2023/03/05 11:50:01;;;;;;;6.90;2.00;;;;;;;;;;110683;1257;23071;-73
2023/03/05 11:52:31;;;;;;;9.10;2.50;;;;;;;;;;110495;1276;22277;-73
2023/03/05 11:55:03;;;;;;;9.40;2.30;;;;;;;;;;110488;1276;22190;-73
2023/03/05 11:57:35;;;;;;;5.60;1.90;;;;;;;;;;110542;1276;22412;-72
2023/03/05 12:00:10;;;;;;;6.90;1.60;;;;;;;;;;110511;1253;22174;-73
2023/03/05 12:02:37;;;;;;;4.70;1.60;;;;;;;;;;110628;1275;22413;-73
2023/03/05 12:05:06;;;;;;;5.70;1.60;;;;;;;;;;110580;1275;23020;-72
2023/03/05 12:07:50;;;;;;;;;;;;;;;;;;;;;
2023/03/05 12:10:38;;;;;;;;;;;;;;;;;;;;;
2023/03/05 12:17:28;;;;;;;8.50;2.30;;;;;;;;;;110123;1280;22176;-74
2023/03/05 12:20:06;;;;;;;7.00;2.10;;;;;;;;;;110085;1273;22135;-74
2023/03/05 12:22:35;;;;;;;4.30;1.30;;;;;;;;;;110082;1262;22202;-73
2023/03/05 12:25:20;;;;;;;5.60;1.50;;;;;;;;;;110108;1276;22292;-73
2023/03/05 12:27:48;;;;;;;7.10;1.80;;;;;;;;;;110120;1281;22240;-73
2023/03/05 12:30:38;;;;;;;7.60;2.30;;;;;;;;;;110058;1258;22130;-74
2023/03/05 12:33:28;;;;;;;14.10;6.60;;;;;;;;;;110071;1269;22160;-72
2023/03/05 12:36:18;;;;;;;14.90;5.00;;;;;;;;;;110105;1281;22154;-73
2023/03/05 12:38:58;;;;;;;11.90;4.00;;;;;;;;;;110095;1281;22161;-73
2023/03/05 12:41:25;;;;;;;12.90;6.20;;;;;;;;;;110052;1261;22162;-72
2023/03/05 12:44:06;;;;;;;13.10;6.80;;;;;;;;;;110032;1281;22340;-73
2023/03/05 12:46:39;;;;;;;13.60;7.30;;;;;;;;;;110084;1281;22128;-72
2023/03/05 12:49:27;;;;;;;9.80;4.30;;;;;;;;;;110023;1281;22323;-72
2023/03/05 12:51:55;;;;;;;5.60;1.70;;;;;;;;;;110743;1254;22937;-72
2023/03/05 12:54:32;;;;;;;6.40;1.90;;;;;;;;;;110473;1270;22077;-72
2023/03/05 12:57:16;;;;;;;7.50;2.00;;;;;;;;;;110455;1276;22100;-72
2023/03/05 12:59:57;;;;;;;6.00;1.60;;;;;;;;;;110473;1276;22113;-72
2023/03/05 13:02:24;;;;;;;5.70;2.00;;;;;;;;;;110473;1259;22114;-73
2023/03/05 13:04:52;;;;;;;11.80;4.90;;;;;;;;;;110645;1276;22763;-72
2023/03/05 13:07:19;;;;;;;14.70;6.00;;;;;;;;;;110475;1276;22098;-72
2023/03/05 13:09:56;;;;;;;13.70;5.80;;;;;;;;;;110643;1272;22006;-72
2023/03/05 13:12:24;;;;;;;11.00;3.70;;;;;;;;;;110612;1257;22259;-82
2023/03/05 13:14:57;;;;;;;8.40;3.90;;;;;;;;;;110392;1276;22211;-72
2023/03/05 13:17:30;;;;;;;8.20;3.50;;;;;;;;;;110271;1276;22331;-72
2023/03/05 13:19:57;;;;;;;14.00;4.20;;;;;;;;;;110427;1276;22127;-72
2023/03/05 13:22:23;;;;;;;16.80;6.70;;;;;;;;;;110536;1257;22114;-74
2023/03/05 13:25:11;;;;;;;10.10;3.70;;;;;;;;;;110363;1276;22084;-72
2023/03/05 13:27:37;;;;;;;7.40;2.50;;;;;;;;;;110465;1276;22814;-72
2023/03/05 13:30:05;;;;;;;16.60;6.80;;;;;;;;;;110465;1276;22122;-71
2023/03/05 13:32:32;;;;;;;10.30;4.30;;;;;;;;;;110749;1254;22603;-73
2023/03/05 13:35:00;;;;;;;15.30;7.80;;;;;;;;;;110376;1276;22199;-71
2023/03/05 13:37:28;;;;;;;12.00;5.20;;;;;;;;;;110434;1276;22133;-72
2023/03/05 13:39:56;;;;;;;10.40;5.10;;;;;;;;;;110343;1276;22164;-72
2023/03/05 13:42:28;;;;;;;14.00;5.80;;;;;;;;;;110404;1253;22132;-76
2023/03/05 13:45:07;;;;;;;10.60;4.50;;;;;;;;;;110424;1276;22106;-71
2023/03/05 13:47:34;;;;;;;11.40;3.80;;;;;;;;;;110443;1276;22429;-72
2023/03/05 13:50:04;;;;;;;8.30;2.60;;;;;;;;;;110456;1276;22282;-71
2023/03/05 13:52:33;;;;;;;6.10;2.10;;;;;;;;;;110454;1254;22121;-72
2023/03/05 13:55:00;;;;;;;6.70;2.20;;;;;;;;;;110428;1276;22183;-72
2023/03/05 13:57:57;;;;;;;5.80;2.00;;;;;;;;;;110355;1276;22564;-72
2023/03/05 14:00:29;;;;;;;9.80;3.40;;;;;;;;;;110387;1276;22160;-72
2023/03/05 14:02:59;;;;;;;7.90;3.20;;;;;;;;;;110386;1260;22682;-72
2023/03/05 14:05:26;;;;;;;15.50;7.90;;;;;;;;;;110422;1276;22107;-73
2023/03/05 14:07:55;;;;;;;8.90;3.40;;;;;;;;;;110359;1276;22069;-72
2023/03/05 14:10:38;;;;;;;13.50;5.60;;;;;;;;;;110443;1276;22093;-72
2023/03/05 14:13:26;;;;;;;13.50;5.20;;;;;;;;;;110527;1253;22764;-72
2023/03/05 14:16:06;;;;;;;31.60;14.10;;;;;;;;;;110439;1276;22138;-72
2023/03/05 14:18:33;;;;;;;23.10;8.50;;;;;;;;;;110417;1276;22110;-72
2023/03/05 14:21:01;;;;;;;32.10;12.80;;;;;;;;;;110512;1276;22131;-73
2023/03/05 14:23:31;;;;;;;38.50;15.10;;;;;;;;;;110611;1257;22131;-73
2023/03/05 14:26:17;;;;;;;24.70;9.10;;;;;;;;;;110444;1276;22193;-73
2023/03/05 14:28:49;;;;;;;27.40;9.70;;;;;;;;;;110498;1276;22131;-73
2023/03/05 14:31:16;;;;;;;35.80;11.50;;;;;;;;;;110419;1276;22827;-73
2023/03/05 14:33:43;;;;;;;44.10;12.40;;;;;;;;;;110472;1254;22328;-73
2023/03/05 14:36:10;;;;;;;37.10;10.80;;;;;;;;;;110480;1276;22783;-73
2023/03/05 14:38:39;;;;;;;22.70;8.30;;;;;;;;;;110502;1276;22292;-73
2023/03/05 14:41:19;;;;;;;16.40;4.70;;;;;;;;;;110417;1275;22750;-73
2023/03/05 14:43:46;;;;;;;16.70;5.00;;;;;;;;;;110464;1257;23113;-72
2023/03/05 14:46:12;;;;;;;15.20;3.80;;;;;;;;;;110316;1277;22187;-74
2023/03/05 14:48:39;;;;;;;9.70;3.40;;;;;;;;;;110195;1277;23156;-72
2023/03/05 14:51:06;;;;;;;15.70;4.20;;;;;;;;;;110444;1277;22121;-74
2023/03/05 14:53:37;;;;;;;12.30;4.10;;;;;;;;;;110359;1254;22491;-74
2023/03/05 14:56:10;;;;;;;14.70;4.70;;;;;;;;;;110337;1277;22101;-72
2023/03/05 14:58:37;;;;;;;7.60;2.70;;;;;;;;;;110407;1277;22138;-72
2023/03/05 15:01:04;;;;;;;8.30;3.40;;;;;;;;;;110380;1277;22057;-73
2023/03/05 15:03:31;;;;;;;13.70;4.30;;;;;;;;;;110442;1277;22462;-74
2023/03/05 15:05:58;;;;;;;8.30;2.50;;;;;;;;;;110777;1254;22172;-72
2023/03/05 15:08:27;;;;;;;11.20;4.10;;;;;;;;;;110349;1277;22100;-74
2023/03/05 15:10:54;;;;;;;11.60;2.90;;;;;;;;;;110237;1278;22195;-73
2023/03/05 15:13:21;;;;;;;11.60;3.90;;;;;;;;;;110222;1278;23030;-73
2023/03/05 15:15:49;;;;;;;13.00;3.50;;;;;;;;;;110543;1257;21998;-73
2023/03/05 15:18:17;;;;;;;17.50;4.90;;;;;;;;;;110391;1277;22109;-73
2023/03/05 15:20:44;;;;;;;15.50;5.00;;;;;;;;;;110406;1277;22113;-73
2023/03/05 15:23:11;;;;;;;10.00;2.70;;;;;;;;;;110422;1277;22089;-72
2023/03/05 15:25:38;;;;;;;10.90;3.90;;;;;;;;;;110577;1258;22120;-73
2023/03/05 15:28:05;;;;;;;11.70;4.90;;;;;;;;;;110394;1277;22162;-73
2023/03/05 15:30:36;;;;;;;13.60;5.00;;;;;;;;;;110345;1277;22926;-73
2023/03/05 15:33:04;;;;;;;11.10;4.20;;;;;;;;;;110349;1277;22168;-72
2023/03/05 15:35:31;;;;;;;11.00;4.20;;;;;;;;;;110524;1259;22166;-73
2023/03/05 15:37:58;;;;;;;10.70;3.80;;;;;;;;;;110456;1277;22568;-73
2023/03/05 15:40:32;;;;;;;8.50;2.40;;;;;;;;;;110292;1278;22920;-72
2023/03/05 15:42:59;;;;;;;8.00;2.60;;;;;;;;;;110349;1278;22141;-73
2023/03/05 15:45:30;;;;;;;15.50;6.90;;;;;;;;;;110259;1257;22158;-73
2023/03/05 15:47:57;;;;;;;8.80;3.80;;;;;;;;;;110153;1279;22107;-73
2023/03/05 15:50:24;;;;;;;9.40;3.20;;;;;;;;;;110159;1279;22815;-74
2023/03/05 15:52:52;;;;;;;10.70;2.50;;;;;;;;;;110234;1279;22130;-73
2023/03/05 15:55:22;;;;;;;10.00;4.30;;;;;;;;;;110238;1260;22113;-74
2023/03/05 15:57:50;;;;;;;8.90;2.50;;;;;;;;;;110193;1278;22111;-73
2023/03/05 16:00:25;;;;;;;5.90;1.90;;;;;;;;;;110173;1278;22121;-73
2023/03/05 16:02:52;;;;;;;6.80;1.60;;;;;;;;;;110181;1278;22782;-72
2023/03/05 16:05:19;;;;;;;6.20;2.10;;;;;;;;;;110185;1260;22111;-74
2023/03/05 16:07:48;;;;;;;7.20;2.30;;;;;;;;;;110186;1278;22159;-73
2023/03/05 16:10:16;;;;;;;13.50;7.90;;;;;;;;;;110155;1278;22091;-74
2023/03/05 16:12:54;;;;;;;8.20;2.50;;;;;;;;;;110177;1278;22099;-73
2023/03/05 16:15:21;;;;;;;8.30;2.60;;;;;;;;;;110351;1256;22254;-73
2023/03/05 16:17:50;;;;;;;31.00;20.10;;;;;;;;;;110202;1278;22126;-74
2023/03/05 16:20:35;;;;;;;21.00;10.40;;;;;;;;;;110173;1278;22182;-74
2023/03/05 16:23:05;;;;;;;9.30;3.50;;;;;;;;;;110199;1278;22084;-72
2023/03/05 16:25:35;;;;;;;45.80;18.10;;;;;;;;;;110391;1256;22166;-73
2023/03/05 16:28:02;;;;;;;81.40;26.20;;;;;;;;;;110171;1278;22037;-73
2023/03/05 16:30:31;;;;;;;66.40;17.10;;;;;;;;;;110177;1278;22145;-73
2023/03/05 16:32:59;;;;;;;32.00;11.00;;;;;;;;;;110344;1278;22446;-73
2023/03/05 16:35:25;;;;;;;19.60;9.40;;;;;;;;;;110149;1278;22339;-73
2023/03/05 16:37:54;;;;;;;15.10;6.50;;;;;;;;;;110148;1264;22496;-73
2023/03/05 16:40:30;;;;;;;13.80;6.80;;;;;;;;;;110179;1279;22118;-73
2023/03/05 16:42:57;;;;;;;9.40;4.00;;;;;;;;;;110178;1279;22885;-73
2023/03/05 16:45:28;;;;;;;12.00;6.50;;;;;;;;;;110177;1279;22252;-73
2023/03/05 16:47:56;;;;;;;10.90;5.00;;;;;;;;;;110278;1259;22151;-73
2023/03/05 16:50:33;;;;;;;20.70;8.60;;;;;;;;;;110322;1279;22112;-78
2023/03/05 16:53:01;;;;;;;28.50;12.20;;;;;;;;;;110182;1279;22107;-73
2023/03/05 16:55:37;;;;;;;17.30;8.30;;;;;;;;;;110170;1279;22139;-73
2023/03/05 16:59:04;;;;;;;14.90;8.60;;;;;;;;;;110368;1256;22290;-73
2023/03/05 17:01:33;;;;;;;11.20;6.80;;;;;;;;;;110263;1279;22102;-73
2023/03/05 17:04:04;;;;;;;9.50;4.00;;;;;;;;;;110289;1279;22162;-73
2023/03/05 17:06:33;;;;;;;8.80;3.30;;;;;;;;;;110173;1279;22117;-73
2023/03/05 17:09:01;;;;;;;9.50;3.30;;;;;;;;;;110238;1257;22894;-73
2023/03/05 17:11:29;;;;;;;9.50;4.00;;;;;;;;;;110122;1279;22109;-73
2023/03/05 17:14:06;;;;;;;;;;;;;;;;;;;;;
2023/03/05 17:17:53;;;;;;;8.80;3.60;;;;;;;;;;109949;1259;22432;-73
2023/03/05 17:20:20;;;;;;;7.90;2.90;;;;;;;;;;109978;1283;22164;-73
2023/03/05 17:22:47;;;;;;;8.90;3.20;;;;;;;;;;110011;1283;22805;-73
2023/03/05 17:25:15;;;;;;;8.70;2.80;;;;;;;;;;110011;1283;22471;-73
2023/03/05 17:27:42;;;;;;;10.10;4.30;;;;;;;;;;109963;1260;21861;-73
2023/03/05 17:30:11;;;;;;;9.30;3.80;;;;;;;;;;109944;1283;22502;-73
2023/03/05 17:32:40;;;;;;;19.70;7.20;;;;;;;;;;109966;1283;22198;-73
2023/03/05 17:35:15;;;;;;;18.80;8.40;;;;;;;;;;109940;1283;22185;-73
2023/03/05 17:37:43;;;;;;;13.90;7.80;;;;;;;;;;109980;1259;22274;-73
2023/03/05 17:40:12;;;;;;;14.00;6.90;;;;;;;;;;109856;1284;22861;-73
2023/03/05 17:42:41;;;;;;;11.90;5.80;;;;;;;;;;109932;1284;22165;-73
2023/03/05 17:45:10;;;;;;;12.50;4.90;;;;;;;;;;109984;1284;22159;-73
2023/03/05 17:47:39;;;;;;;16.40;8.60;;;;;;;;;;109965;1283;22173;-73
2023/03/05 17:50:11;;;;;;;13.00;6.70;;;;;;;;;;110041;1264;22131;-73
2023/03/05 17:52:40;;;;;;;14.70;7.00;;;;;;;;;;109944;1284;22912;-73
2023/03/05 17:55:10;;;;;;;10.40;3.40;;;;;;;;;;110064;1281;22138;-73
2023/03/05 17:57:41;;;;;;;12.70;4.40;;;;;;;;;;110037;1281;22121;-72
2023/03/05 18:00:14;;;;;;;16.40;8.60;;;;;;;;;;110117;1262;22150;-72
2023/03/05 18:02:43;;;;;;;17.20;8.50;;;;;;;;;;110102;1280;22405;-72
2023/03/05 18:05:14;;;;;;;15.70;7.10;;;;;;;;;;110072;1280;22088;-72
2023/03/05 18:07:43;;;;;;;12.90;5.60;;;;;;;;;;110078;1280;22101;-72
2023/03/05 18:10:13;;;;;;;12.80;5.20;;;;;;;;;;110123;1262;22113;-72
2023/03/05 18:12:42;;;;;;;10.80;3.90;;;;;;;;;;110109;1280;22125;-72
2023/03/05 18:15:12;;;;;;;11.40;6.20;;;;;;;;;;110079;1280;22669;-72
2023/03/05 18:17:41;;;;;;;9.40;4.30;;;;;;;;;;110086;1280;22301;-72
2023/03/05 18:20:30;;;;;;;9.50;4.00;;;;;;;;;;110332;1262;22141;-73
2023/03/05 18:23:01;;;;;;;10.00;4.30;;;;;;;;;;110132;1280;22100;-72
2023/03/05 18:25:30;;;;;;;9.00;3.10;;;;;;;;;;110099;1280;22265;-72
2023/03/05 18:28:14;;;;;;;8.10;3.40;;;;;;;;;;110089;1278;22166;-73
2023/03/05 18:30:52;;;;;;;17.70;6.80;;;;;;;;;;110459;1262;22136;-72
2023/03/05 18:33:24;;;;;;;13.60;5.80;;;;;;;;;;110127;1280;22888;-72
2023/03/05 18:35:53;;;;;;;12.30;6.30;;;;;;;;;;110094;1280;22995;-72
2023/03/05 18:38:23;;;;;;;13.90;7.10;;;;;;;;;;110137;1280;22114;-73
2023/03/05 18:44:56;;;;;;;11.70;4.80;;;;;;;;;;103896;1304;544900;-79
2023/03/05 18:47:41;;;;;;;;;;;;;;;;;;;;;
2023/03/05 18:50:40;;;;;;;;;;;;;;;;;;;;;
2023/03/05 18:53:20;;;;;;;31.10;12.50;;;;;;;;;;106247;1285;25310;-76
2023/03/05 18:56:12;;;;;;;22.90;9.60;;;;;;;;;;106365;1265;24240;-74
2023/03/05 18:59:25;;;;;;;30.50;12.30;;;;;;;;;;102295;1283;5395148;-78
2023/03/05 19:02:55;;;;;;;22.50;9.70;;;;;;;;;;106483;1283;22531;-80
2023/03/05 19:15:47;;;;;;;18.70;7.80;;;;;;;;;;103827;1294;545360;-75
2023/03/05 19:18:43;;;;;;;13.00;6.40;;;;;;;;;;106016;1288;25272;-74
2023/03/05 19:21:33;;;;;;;12.20;4.60;;;;;;;;;;105931;1288;22476;-79
2023/03/05 19:24:15;;;;;;;12.50;4.80;;;;;;;;;;105992;1289;24207;-78
2023/03/05 19:29:58;;;;;;;12.40;4.30;;;;;;;;;;102047;1286;5501936;-76
2023/03/05 19:32:40;;;;;;;10.00;4.90;;;;;;;;;;106138;1286;22493;-75
2023/03/05 19:35:43;;;;;;;11.90;4.50;;;;;;;;;;106238;1263;24369;-75
2023/03/05 19:38:39;;;;;;;12.30;4.20;;;;;;;;;;105831;1291;22557;-74
2023/03/05 19:41:16;;;;;;;10.40;3.90;;;;;;;;;;105888;1291;25482;-74
2023/03/05 19:44:25;;;;;;;10.40;4.20;;;;;;;;;;106470;1279;22543;-77
2023/03/05 19:47:12;;;;;;;11.90;5.30;;;;;;;;;;106429;1265;22664;-76
2023/03/05 19:49:49;;;;;;;20.80;5.10;;;;;;;;;;106444;1282;22534;-76
2023/03/05 19:53:16;;;;;;;22.60;6.80;;;;;;;;;;106408;1282;22534;-77
2023/03/05 19:56:05;;;;;;;27.60;7.20;;;;;;;;;;106461;1270;22545;-77
2023/03/05 19:59:16;;;;;;;27.10;7.70;;;;;;;;;;106443;1282;24193;-76
2023/03/05 20:01:59;;;;;;;;;;;;;;;;;;;;;
2023/03/05 20:04:48;;;;;;;37.10;11.90;;;;;;;;;;106489;1282;22573;-78
2023/03/05 20:07:45;;;;;;;29.80;9.10;;;;;;;;;;106443;1282;24368;-79
2023/03/05 20:10:14;;;;;;;30.50;8.20;;;;;;;;;;106444;1275;22534;-75
2023/03/05 20:12:57;;;;;;;15.90;5.20;;;;;;;;;;106454;1277;25363;-74
2023/03/05 20:15:51;;;;;;;17.20;4.40;;;;;;;;;;106510;1279;22613;-76
2023/03/05 20:18:33;;;;;;;14.20;3.60;;;;;;;;;;106778;1279;25350;-74
2023/03/05 20:21:23;;;;;;;11.20;3.60;;;;;;;;;;106769;1278;25295;-75
2023/03/05 20:23:54;;;;;;;11.90;3.40;;;;;;;;;;106570;1278;22581;-79
2023/03/05 20:26:42;;;;;;;14.90;3.80;;;;;;;;;;106800;1261;25397;-73
2023/03/05 20:29:24;;;;;;;19.00;5.30;;;;;;;;;;106826;1276;23000;-79
2023/03/05 20:32:04;;;;;;;25.10;7.70;;;;;;;;;;106583;1278;25498;-78
2023/03/05 20:34:40;;;;;;;31.80;9.60;;;;;;;;;;106806;1278;25450;-75
2023/03/05 20:37:16;;;;;;;26.10;9.80;;;;;;;;;;106779;1260;22527;-79
2023/03/05 20:39:45;;;;;;;27.80;10.50;;;;;;;;;;106738;1267;22513;-77
2023/03/05 20:43:03;;;;;;;;;;;;;;;;;;;;;
2023/03/05 20:45:59;;;;;;;21.90;7.20;;;;;;;;;;106881;1271;22531;-75
2023/03/05 20:49:00;;;;;;;15.40;4.90;;;;;;;;;;106897;1260;22521;-75
2023/03/05 20:51:37;;;;;;;22.30;6.30;;;;;;;;;;106857;1270;22538;-78
2023/03/05 20:54:22;;;;;;;20.20;7.20;;;;;;;;;;106842;1270;23029;-75
2023/03/05 20:57:23;;;;;;;34.60;12.00;;;;;;;;;;106970;1276;25275;-74
2023/03/05 20:59:50;;;;;;;57.30;22.10;;;;;;;;;;106856;1266;24225;-74
2023/03/05 21:02:58;;;;;;;50.90;18.20;;;;;;;;;;106554;1282;22534;-73
2023/03/05 21:05:29;;;;;;;33.00;12.30;;;;;;;;;;106486;1282;24050;-75
2023/03/05 21:08:16;;;;;;;13.90;5.40;;;;;;;;;;106374;1261;24456;-73
2023/03/05 21:11:32;;;;;;;10.30;3.40;;;;;;;;;;106414;1283;24042;-76
2023/03/05 21:14:21;;;;;;;21.90;9.60;;;;;;;;;;105803;1286;25360;-77
2023/03/05 21:17:56;;;;;;;17.60;6.20;;;;;;;;;;105796;1289;22555;-74
2023/03/05 21:20:29;;;;;;;16.10;5.50;;;;;;;;;;105921;1274;22556;-74
2023/03/05 21:22:59;;;;;;;12.50;4.50;;;;;;;;;;105994;1284;25401;-77
2023/03/05 21:25:44;;;;;;;12.50;3.90;;;;;;;;;;105899;1289;23932;-77
2023/03/05 21:28:45;;;;;;;22.50;8.70;;;;;;;;;;106000;1289;25640;-74
2023/03/05 21:31:38;;;;;;;;;;;;;;;;;;;;;
2023/03/05 21:34:13;;;;;;;14.10;3.90;;;;;;;;;;106055;1288;22664;-75
2023/03/05 21:36:40;;;;;;;11.60;3.90;;;;;;;;;;106066;1284;22547;-75
2023/03/05 21:39:28;;;;;;;10.80;3.70;;;;;;;;;;106034;1271;24228;-78
2023/03/05 21:42:14;;;;;;;21.30;6.10;;;;;;;;;;106028;1281;25379;-74
2023/03/05 21:45:01;;;;;;;13.70;4.10;;;;;;;;;;106103;1282;24245;-74
2023/03/05 21:47:58;;;;;;;14.60;4.20;;;;;;;;;;105901;1288;25587;-75
2023/03/05 21:50:49;;;;;;;8.60;2.40;;;;;;;;;;106390;1270;25449;-76
2023/03/05 21:53:56;;;;;;;;;;;;;;;;;;;;;
2023/03/05 21:57:08;;;;;;;;;;;;;;;;;;;;;
2023/03/05 21:59:58;;;;;;;10.60;3.00;;;;;;;;;;106531;1273;24164;-75
2023/03/05 22:03:52;;;;;;;11.00;3.50;;;;;;;;;;106569;1282;22509;-75
2023/03/05 22:06:23;;;;;;;9.40;3.30;;;;;;;;;;106349;1285;22550;-75
2023/03/05 22:09:29;;;;;;;;;;;;;;;;;;;;;
2023/03/05 22:11:59;;;;;;;13.70;4.40;;;;;;;;;;106363;1276;25227;-74
2023/03/05 22:15:07;;;;;;;12.30;4.40;;;;;;;;;;106359;1285;24215;-75
2023/03/05 22:17:55;;;;;;;20.80;6.10;;;;;;;;;;106357;1285;22538;-75
2023/03/05 22:20:42;;;;;;;21.50;8.70;;;;;;;;;;106350;1271;25398;-74
2023/03/05 22:23:51;;;;;;;13.90;4.90;;;;;;;;;;106418;1285;23129;-74
2023/03/05 22:27:08;;;;;;;;;;;;;;;;;;;;;
2023/03/05 22:30:06;;;;;;;12.10;5.00;;;;;;;;;;106215;1287;24365;-76
2023/03/05 22:33:14;;;;;;;9.60;3.70;;;;;;;;;;106077;1273;25297;-75
2023/03/05 22:36:00;;;;;;;9.80;3.90;;;;;;;;;;105899;1288;22540;-75
2023/03/05 22:42:52;;;;;;;12.30;5.10;;;;;;;;;;105489;1280;24228;-78
2023/03/05 22:45:30;;;;;;;;;;;;;;;;;;;;;
2023/03/05 22:48:50;;;;;;;;;;;;;;;;;;;;;
2023/03/05 22:52:43;;;;;;;13.50;5.40;;;;;;;;;;105154;1298;22565;-77
2023/03/05 22:55:04;;;;;;;15.40;6.00;;;;;;;;;;107863;1305;22189;-73
2023/03/05 22:57:31;;;;;;;14.90;6.30;;;;;;;;;;107815;1305;22177;-73
2023/03/05 22:59:58;;;;;;;13.00;4.60;;;;;;;;;;107959;1305;22163;-73
2023/03/05 23:02:31;;;;;;;12.30;5.10;;;;;;;;;;107962;1291;22172;-74
2023/03/05 23:05:07;;;;;;;11.20;5.20;;;;;;;;;;107913;1305;22280;-73
2023/03/05 23:07:34;;;;;;;13.40;5.90;;;;;;;;;;108232;1301;22134;-74
2023/03/05 23:11:15;;;;;;;13.70;5.00;;;;;;;;;;108343;1301;22774;-73
2023/03/05 23:13:57;;;;;;;13.70;5.50;;;;;;;;;;108025;1296;22304;-73
2023/03/05 23:16:52;;;;;;;;;;;;;;;;;;;;;
2023/03/05 23:19:29;;;;;;;11.80;4.40;;;;;;;;;;108478;1296;22157;-73
2023/03/05 23:21:56;;;;;;;12.10;4.40;;;;;;;;;;108800;1280;23045;-75
2023/03/05 23:24:53;;;;;;;11.40;4.50;;;;;;;;;;108862;1296;22946;-73
2023/03/05 23:27:50;;;;;;;13.80;5.00;;;;;;;;;;108964;1296;22156;-73
2023/03/05 23:30:19;;;;;;;15.80;5.50;;;;;;;;;;109653;1288;22204;-73
2023/03/05 23:33:05;;;;;;;14.30;5.20;;;;;;;;;;109918;1271;22297;-73
2023/03/05 23:35:33;;;;;;;15.00;6.00;;;;;;;;;;110061;1281;22099;-73
2023/03/05 23:38:01;;;;;;;17.50;5.90;;;;;;;;;;109979;1281;22156;-74
2023/03/05 23:40:40;;;;;;;16.80;6.20;;;;;;;;;;109992;1281;22050;-73
2023/03/05 23:43:19;;;;;;;16.70;6.00;;;;;;;;;;110059;1273;22326;-73
2023/03/05 23:45:47;;;;;;;16.60;6.00;;;;;;;;;;110107;1281;22153;-74
2023/03/05 23:48:15;;;;;;;17.60;6.90;;;;;;;;;;110011;1281;22155;-74
2023/03/05 23:50:43;;;;;;;16.60;7.20;;;;;;;;;;110315;1275;22321;-74
2023/03/05 23:53:10;;;;;;;16.70;6.10;;;;;;;;;;110593;1268;22123;-73
2023/03/05 23:55:42;;;;;;;16.30;6.90;;;;;;;;;;110498;1275;22126;-73
2023/03/05 23:58:09;;;;;;;16.00;6.30;;;;;;;;;;110269;1275;22140;-73
